sensor_id;sensor_type;location;lat;lon;timestamp;pressure;altitude;pressure_sealevel;temperature;humidity
42169;BME280;27838;43.858;25.974;2023-08-08T00:01:28;100733.03;;;24.49;59.54
42169;BME280;27838;43.858;25.974;2023-08-08T00:03:54;100736.63;;;24.48;59.23
42169;BME280;27838;43.858;25.974;2023-08-08T00:06:21;100728.06;;;24.43;59.23
42169;BME280;27838;43.858;25.974;2023-08-08T00:08:47;100742.22;;;24.43;59.42
42169;BME280;27838;43.858;25.974;2023-08-08T00:11:14;100747.66;;;24.42;58.56
42169;BME280;27838;43.858;25.974;2023-08-08T00:13:40;100761.13;;;24.39;59.11
42169;BME280;27838;43.858;25.974;2023-08-08T00:16:07;100757.88;;;24.34;59.22
42169;BME280;27838;43.858;25.974;2023-08-08T00:18:34;100768.97;;;24.42;59.22
42169;BME280;27838;43.858;25.974;2023-08-08T00:21:01;100774.19;;;24.43;58.81
42169;BME280;27838;43.858;25.974;2023-08-08T00:23:27;100787.78;;;24.39;58.94
42169;BME280;27838;43.858;25.974;2023-08-08T00:25:54;100778.19;;;24.20;59.60
42169;BME280;27838;43.858;25.974;2023-08-08T00:28:20;100774.91;;;24.15;60.08
42169;BME280;27838;43.858;25.974;2023-08-08T00:30:47;100769.00;;;24.10;59.93
42169;BME280;27838;43.858;25.974;2023-08-08T00:33:13;100785.28;;;24.04;60.11
42169;BME280;27838;43.858;25.974;2023-08-08T00:35:40;100782.19;;;23.96;60.37
42169;BME280;27838;43.858;25.974;2023-08-08T00:38:06;100785.72;;;23.96;60.96
42169;BME280;27838;43.858;25.974;2023-08-08T00:40:33;100788.63;;;23.91;60.93
42169;BME280;27838;43.858;25.974;2023-08-08T00:42:59;100785.19;;;23.89;59.79
42169;BME280;27838;43.858;25.974;2023-08-08T00:45:26;100785.75;;;23.79;59.47
42169;BME280;27838;43.858;25.974;2023-08-08T00:47:53;100781.72;;;23.71;59.87
42169;BME280;27838;43.858;25.974;2023-08-08T00:50:20;100776.19;;;23.74;61.01
42169;BME280;27838;43.858;25.974;2023-08-08T00:52:47;100767.38;;;23.74;59.79
42169;BME280;27838;43.858;25.974;2023-08-08T00:55:14;100769.88;;;23.77;59.11
42169;BME280;27838;43.858;25.974;2023-08-08T00:57:41;100766.25;;;23.78;59.48
42169;BME280;27838;43.858;25.974;2023-08-08T01:00:08;100767.97;;;23.79;59.67
42169;BME280;27838;43.858;25.974;2023-08-08T01:02:36;100774.22;;;23.78;60.09
42169;BME280;27838;43.858;25.974;2023-08-08T01:05:03;100767.22;;;23.77;60.09
42169;BME280;27838;43.858;25.974;2023-08-08T01:10:05;100776.47;;;23.70;59.76
42169;BME280;27838;43.858;25.974;2023-08-08T01:12:39;100789.00;;;23.68;59.05
42169;BME280;27838;43.858;25.974;2023-08-08T01:15:07;100793.25;;;23.54;59.67
42169;BME280;27838;43.858;25.974;2023-08-08T01:17:35;100809.44;;;23.50;60.17
42169;BME280;27838;43.858;25.974;2023-08-08T01:20:05;100807.13;;;23.44;59.80
42169;BME280;27838;43.858;25.974;2023-08-08T01:22:37;100809.31;;;23.35;59.12
42169;BME280;27838;43.858;25.974;2023-08-08T01:25:07;100815.03;;;23.28;59.19
42169;BME280;27838;43.858;25.974;2023-08-08T01:27:35;100821.13;;;23.30;59.58
42169;BME280;27838;43.858;25.974;2023-08-08T01:30:02;100826.47;;;23.30;58.93
42169;BME280;27838;43.858;25.974;2023-08-08T01:32:29;100831.00;;;23.28;58.71
42169;BME280;27838;43.858;25.974;2023-08-08T01:34:55;100846.00;;;23.29;58.78
42169;BME280;27838;43.858;25.974;2023-08-08T01:37:49;100851.78;;;23.19;58.94
42169;BME280;27838;43.858;25.974;2023-08-08T01:40:17;100849.44;;;23.13;59.47
42169;BME280;27838;43.858;25.974;2023-08-08T01:42:45;100861.31;;;23.06;59.68
42169;BME280;27838;43.858;25.974;2023-08-08T01:45:13;100865.72;;;23.07;60.31
42169;BME280;27838;43.858;25.974;2023-08-08T01:47:41;100857.13;;;23.00;60.15
42169;BME280;27838;43.858;25.974;2023-08-08T01:50:08;100858.38;;;22.93;60.60
42169;BME280;27838;43.858;25.974;2023-08-08T01:52:35;100868.09;;;22.94;60.88
42169;BME280;27838;43.858;25.974;2023-08-08T01:55:02;100872.66;;;22.91;61.14
42169;BME280;27838;43.858;25.974;2023-08-08T01:57:28;100873.56;;;22.91;61.68
42169;BME280;27838;43.858;25.974;2023-08-08T01:59:55;100888.72;;;22.89;61.21
42169;BME280;27838;43.858;25.974;2023-08-08T02:02:21;100896.69;;;22.89;62.37
42169;BME280;27838;43.858;25.974;2023-08-08T02:04:48;100896.41;;;22.76;62.18
42169;BME280;27838;43.858;25.974;2023-08-08T02:07:14;100895.28;;;22.63;62.76
42169;BME280;27838;43.858;25.974;2023-08-08T02:09:41;100889.84;;;22.47;63.31
42169;BME280;27838;43.858;25.974;2023-08-08T02:12:08;100884.59;;;22.46;63.76
42169;BME280;27838;43.858;25.974;2023-08-08T02:14:34;100873.91;;;22.47;64.05
42169;BME280;27838;43.858;25.974;2023-08-08T02:17:01;100864.00;;;22.51;63.83
42169;BME280;27838;43.858;25.974;2023-08-08T02:19:27;100868.09;;;22.58;63.68
42169;BME280;27838;43.858;25.974;2023-08-08T02:21:54;100878.53;;;22.61;63.65
42169;BME280;27838;43.858;25.974;2023-08-08T02:24:21;100875.34;;;22.54;63.61
42169;BME280;27838;43.858;25.974;2023-08-08T02:26:47;100882.50;;;22.52;64.21
42169;BME280;27838;43.858;25.974;2023-08-08T02:29:14;100876.63;;;22.46;64.36
42169;BME280;27838;43.858;25.974;2023-08-08T02:31:40;100881.72;;;22.50;64.34
42169;BME280;27838;43.858;25.974;2023-08-08T02:34:07;100877.75;;;22.59;64.43
42169;BME280;27838;43.858;25.974;2023-08-08T02:36:33;100859.09;;;22.60;63.99
42169;BME280;27838;43.858;25.974;2023-08-08T02:39:00;100875.59;;;22.67;63.28
42169;BME280;27838;43.858;25.974;2023-08-08T02:41:26;100867.84;;;22.62;63.19
42169;BME280;27838;43.858;25.974;2023-08-08T02:43:53;100868.09;;;22.58;63.17
42169;BME280;27838;43.858;25.974;2023-08-08T02:46:20;100871.81;;;22.54;62.87
42169;BME280;27838;43.858;25.974;2023-08-08T02:48:46;100881.78;;;22.49;62.78
42169;BME280;27838;43.858;25.974;2023-08-08T02:51:13;100871.88;;;22.52;63.00
42169;BME280;27838;43.858;25.974;2023-08-08T02:53:39;100874.47;;;22.54;62.69
42169;BME280;27838;43.858;25.974;2023-08-08T02:56:06;100869.16;;;22.54;62.35
42169;BME280;27838;43.858;25.974;2023-08-08T02:58:32;100878.06;;;22.53;62.02
42169;BME280;27838;43.858;25.974;2023-08-08T03:00:59;100868.44;;;22.31;62.29
42169;BME280;27838;43.858;25.974;2023-08-08T03:03:25;100866.59;;;22.33;62.86
42169;BME280;27838;43.858;25.974;2023-08-08T03:05:52;100860.63;;;22.28;62.47
42169;BME280;27838;43.858;25.974;2023-08-08T03:08:18;100863.47;;;22.23;62.43
42169;BME280;27838;43.858;25.974;2023-08-08T03:10:45;100866.03;;;22.06;62.45
42169;BME280;27838;43.858;25.974;2023-08-08T03:13:11;100872.56;;;21.99;62.64
42169;BME280;27838;43.858;25.974;2023-08-08T03:15:38;100890.34;;;21.97;62.24
42169;BME280;27838;43.858;25.974;2023-08-08T03:18:04;100901.22;;;21.91;62.78
42169;BME280;27838;43.858;25.974;2023-08-08T03:20:31;100909.00;;;21.95;62.60
42169;BME280;27838;43.858;25.974;2023-08-08T03:22:58;100897.84;;;21.87;61.87
42169;BME280;27838;43.858;25.974;2023-08-08T03:25:24;100904.81;;;21.90;61.94
42169;BME280;27838;43.858;25.974;2023-08-08T03:27:51;100899.22;;;21.96;61.97
42169;BME280;27838;43.858;25.974;2023-08-08T03:30:17;100905.38;;;21.96;61.72
42169;BME280;27838;43.858;25.974;2023-08-08T03:32:44;100905.38;;;21.96;62.01
42169;BME280;27838;43.858;25.974;2023-08-08T03:35:10;100898.38;;;21.95;61.95
42169;BME280;27838;43.858;25.974;2023-08-08T03:37:37;100907.91;;;21.79;62.24
42169;BME280;27838;43.858;25.974;2023-08-08T03:40:04;100905.94;;;21.84;62.64
42169;BME280;27838;43.858;25.974;2023-08-08T03:42:33;100907.53;;;21.88;62.58
42169;BME280;27838;43.858;25.974;2023-08-08T03:44:59;100931.19;;;21.93;62.29
42169;BME280;27838;43.858;25.974;2023-08-08T03:47:26;100917.00;;;21.73;62.48
42169;BME280;27838;43.858;25.974;2023-08-08T03:49:55;100930.34;;;21.72;62.66
42169;BME280;27838;43.858;25.974;2023-08-08T03:52:23;100934.00;;;21.69;62.38
42169;BME280;27838;43.858;25.974;2023-08-08T03:54:50;100941.13;;;21.68;62.55
42169;BME280;27838;43.858;25.974;2023-08-08T03:57:16;100942.28;;;21.61;63.16
42169;BME280;27838;43.858;25.974;2023-08-08T03:59:43;100952.44;;;21.52;63.12
42169;BME280;27838;43.858;25.974;2023-08-08T04:02:09;100950.03;;;21.44;64.02
42169;BME280;27838;43.858;25.974;2023-08-08T04:04:36;100954.78;;;21.37;63.60
42169;BME280;27838;43.858;25.974;2023-08-08T04:07:04;100952.91;;;21.39;63.40
42169;BME280;27838;43.858;25.974;2023-08-08T04:09:30;100952.13;;;21.37;63.55
42169;BME280;27838;43.858;25.974;2023-08-08T04:11:57;100961.53;;;21.44;63.75
42169;BME280;27838;43.858;25.974;2023-08-08T04:14:24;100959.91;;;21.40;63.49
42169;BME280;27838;43.858;25.974;2023-08-08T04:16:50;100954.16;;;21.30;63.59
42169;BME280;27838;43.858;25.974;2023-08-08T04:19:17;100962.31;;;21.48;64.02
42169;BME280;27838;43.858;25.974;2023-08-08T04:21:43;100954.97;;;21.55;63.19
42169;BME280;27838;43.858;25.974;2023-08-08T04:24:10;100957.41;;;21.59;62.50
42169;BME280;27838;43.858;25.974;2023-08-08T04:26:37;100960.84;;;21.61;62.60
42169;BME280;27838;43.858;25.974;2023-08-08T04:29:05;100968.41;;;21.50;63.17
42169;BME280;27838;43.858;25.974;2023-08-08T04:31:31;100974.78;;;21.44;63.51
42169;BME280;27838;43.858;25.974;2023-08-08T04:33:59;100975.50;;;21.49;63.68
42169;BME280;27838;43.858;25.974;2023-08-08T04:36:29;100973.75;;;21.48;63.72
42169;BME280;27838;43.858;25.974;2023-08-08T04:38:56;100993.72;;;21.57;63.41
42169;BME280;27838;43.858;25.974;2023-08-08T04:41:22;100997.69;;;21.47;63.14
42169;BME280;27838;43.858;25.974;2023-08-08T04:43:49;100990.59;;;21.47;63.38
42169;BME280;27838;43.858;25.974;2023-08-08T04:46:15;100984.97;;;21.55;63.31
42169;BME280;27838;43.858;25.974;2023-08-08T04:48:42;100974.09;;;21.61;63.15
42169;BME280;27838;43.858;25.974;2023-08-08T04:51:09;100967.94;;;21.61;62.59
42169;BME280;27838;43.858;25.974;2023-08-08T04:53:35;100975.84;;;21.62;63.00
42169;BME280;27838;43.858;25.974;2023-08-08T04:56:02;100993.16;;;21.71;62.43
42169;BME280;27838;43.858;25.974;2023-08-08T04:58:29;100995.03;;;21.69;62.49
42169;BME280;27838;43.858;25.974;2023-08-08T05:00:55;101005.56;;;21.71;62.32
42169;BME280;27838;43.858;25.974;2023-08-08T05:03:22;101004.63;;;21.72;62.29
42169;BME280;27838;43.858;25.974;2023-08-08T05:05:48;101016.31;;;21.67;62.27
42169;BME280;27838;43.858;25.974;2023-08-08T05:08:15;101014.31;;;21.73;62.23
42169;BME280;27838;43.858;25.974;2023-08-08T05:10:41;101021.22;;;21.77;61.91
42169;BME280;27838;43.858;25.974;2023-08-08T05:13:09;101021.22;;;21.77;61.97
42169;BME280;27838;43.858;25.974;2023-08-08T05:15:36;101032.78;;;21.76;62.36
42169;BME280;27838;43.858;25.974;2023-08-08T05:18:03;101029.91;;;21.80;62.14
42169;BME280;27838;43.858;25.974;2023-08-08T05:20:30;101026.00;;;21.89;61.46
42169;BME280;27838;43.858;25.974;2023-08-08T05:22:56;101018.81;;;21.91;61.62
42169;BME280;27838;43.858;25.974;2023-08-08T05:25:23;101016.06;;;21.94;61.09
42169;BME280;27838;43.858;25.974;2023-08-08T05:27:49;101023.63;;;22.03;60.46
42169;BME280;27838;43.858;25.974;2023-08-08T05:30:16;101022.50;;;22.09;60.64
42169;BME280;27838;43.858;25.974;2023-08-08T05:32:43;101025.22;;;22.08;60.86
42169;BME280;27838;43.858;25.974;2023-08-08T05:35:09;101019.91;;;22.08;60.72
42169;BME280;27838;43.858;25.974;2023-08-08T05:37:36;101019.78;;;21.90;61.08
42169;BME280;27838;43.858;25.974;2023-08-08T05:40:02;101026.41;;;21.80;61.17
42169;BME280;27838;43.858;25.974;2023-08-08T05:42:31;101044.69;;;21.65;61.81
42169;BME280;27838;43.858;25.974;2023-08-08T05:44:57;101055.41;;;21.62;62.60
42169;BME280;27838;43.858;25.974;2023-08-08T05:47:24;101057.16;;;21.63;62.72
42169;BME280;27838;43.858;25.974;2023-08-08T05:49:51;101051.47;;;21.73;62.45
42169;BME280;27838;43.858;25.974;2023-08-08T05:52:17;101046.34;;;21.68;62.36
42169;BME280;27838;43.858;25.974;2023-08-08T05:54:44;101068.09;;;21.76;62.50
42169;BME280;27838;43.858;25.974;2023-08-08T05:57:10;101067.31;;;21.74;62.41
42169;BME280;27838;43.858;25.974;2023-08-08T05:59:37;101053.09;;;21.75;62.07
42169;BME280;27838;43.858;25.974;2023-08-08T06:02:03;101031.88;;;21.75;62.22
42169;BME280;27838;43.858;25.974;2023-08-08T06:04:30;101039.91;;;21.74;62.03
42169;BME280;27838;43.858;25.974;2023-08-08T06:06:57;101071.56;;;21.78;62.14
42169;BME280;27838;43.858;25.974;2023-08-08T06:09:24;101070.94;;;21.72;62.26
42169;BME280;27838;43.858;25.974;2023-08-08T06:11:51;101076.19;;;21.73;62.26
42169;BME280;27838;43.858;25.974;2023-08-08T06:14:18;101074.53;;;21.71;62.37
42169;BME280;27838;43.858;25.974;2023-08-08T06:16:44;101078.22;;;21.66;62.17
42169;BME280;27838;43.858;25.974;2023-08-08T06:19:11;101096.84;;;21.65;61.94
42169;BME280;27838;43.858;25.974;2023-08-08T06:21:40;101102.41;;;21.59;62.63
42169;BME280;27838;43.858;25.974;2023-08-08T06:24:07;101101.56;;;21.58;62.70
42169;BME280;27838;43.858;25.974;2023-08-08T06:26:33;101098.09;;;21.56;63.11
42169;BME280;27838;43.858;25.974;2023-08-08T06:29:00;101094.28;;;21.63;63.84
42169;BME280;27838;43.858;25.974;2023-08-08T06:31:26;101100.19;;;21.70;63.75
42169;BME280;27838;43.858;25.974;2023-08-08T06:33:53;101107.22;;;21.71;63.44
42169;BME280;27838;43.858;25.974;2023-08-08T06:36:19;101109.69;;;21.76;63.76
42169;BME280;27838;43.858;25.974;2023-08-08T06:38:46;101114.75;;;21.82;63.25
42169;BME280;27838;43.858;25.974;2023-08-08T06:41:12;101106.66;;;21.85;63.25
42169;BME280;27838;43.858;25.974;2023-08-08T06:43:39;101107.78;;;21.79;63.25
42169;BME280;27838;43.858;25.974;2023-08-08T06:46:05;101104.25;;;21.79;63.65
42169;BME280;27838;43.858;25.974;2023-08-08T06:48:32;101099.94;;;21.76;64.11
42169;BME280;27838;43.858;25.974;2023-08-08T06:50:59;101101.47;;;21.82;64.03
42169;BME280;27838;43.858;25.974;2023-08-08T06:53:25;101100.19;;;21.70;64.03
42169;BME280;27838;43.858;25.974;2023-08-08T06:55:52;101094.41;;;21.60;64.26
42169;BME280;27838;43.858;25.974;2023-08-08T06:58:18;101092.78;;;21.56;64.94
42169;BME280;27838;43.858;25.974;2023-08-08T07:00:45;101093.66;;;21.57;65.19
42169;BME280;27838;43.858;25.974;2023-08-08T07:03:11;101085.75;;;21.55;64.63
42169;BME280;27838;43.858;25.974;2023-08-08T07:05:38;101097.22;;;21.56;64.94
42169;BME280;27838;43.858;25.974;2023-08-08T07:08:05;101096.50;;;21.52;64.93
42169;BME280;27838;43.858;25.974;2023-08-08T07:10:34;101087.63;;;21.53;65.28
42169;BME280;27838;43.858;25.974;2023-08-08T07:13:01;101079.34;;;21.61;65.07
42169;BME280;27838;43.858;25.974;2023-08-08T07:15:27;101075.91;;;21.59;64.19
42169;BME280;27838;43.858;25.974;2023-08-08T07:17:54;101081.63;;;21.48;64.19
42169;BME280;27838;43.858;25.974;2023-08-08T07:20:20;101089.53;;;21.49;63.31
42169;BME280;27838;43.858;25.974;2023-08-08T07:22:47;101094.50;;;21.57;64.13
42169;BME280;27838;43.858;25.974;2023-08-08T07:25:14;101088.25;;;21.60;63.94
42169;BME280;27838;43.858;25.974;2023-08-08T07:27:41;101095.88;;;21.67;63.64
42169;BME280;27838;43.858;25.974;2023-08-08T07:30:07;101102.78;;;21.72;63.84
42169;BME280;27838;43.858;25.974;2023-08-08T07:32:34;101102.59;;;21.76;64.06
42169;BME280;27838;43.858;25.974;2023-08-08T07:35:01;101114.13;;;21.75;63.63
42169;BME280;27838;43.858;25.974;2023-08-08T07:37:30;101122.34;;;21.69;63.80
42169;BME280;27838;43.858;25.974;2023-08-08T07:39:57;101124.88;;;21.72;63.97
42169;BME280;27838;43.858;25.974;2023-08-08T07:42:23;101118.69;;;21.72;64.08
42169;BME280;27838;43.858;25.974;2023-08-08T07:44:50;101126.97;;;21.86;64.23
42169;BME280;27838;43.858;25.974;2023-08-08T07:47:16;101113.72;;;21.86;63.14
42169;BME280;27838;43.858;25.974;2023-08-08T07:49:43;101105.00;;;21.82;63.52
42169;BME280;27838;43.858;25.974;2023-08-08T07:52:10;101122.41;;;21.90;62.74
42169;BME280;27838;43.858;25.974;2023-08-08T07:54:36;101104.75;;;21.88;62.94
42169;BME280;27838;43.858;25.974;2023-08-08T07:57:03;101103.56;;;21.96;62.77
42169;BME280;27838;43.858;25.974;2023-08-08T07:59:30;101117.56;;;21.99;61.69
42169;BME280;27838;43.858;25.974;2023-08-08T08:01:56;101118.19;;;22.06;61.97
42169;BME280;27838;43.858;25.974;2023-08-08T08:04:23;101114.22;;;22.16;61.09
42169;BME280;27838;43.858;25.974;2023-08-08T08:06:49;101117.84;;;22.14;60.82
42169;BME280;27838;43.858;25.974;2023-08-08T08:09:16;101120.72;;;22.09;60.36
42169;BME280;27838;43.858;25.974;2023-08-08T08:11:43;101111.22;;;22.03;60.19
42169;BME280;27838;43.858;25.974;2023-08-08T08:14:09;101115.91;;;21.97;61.02
42169;BME280;27838;43.858;25.974;2023-08-08T08:16:36;101115.75;;;22.00;61.18
42169;BME280;27838;43.858;25.974;2023-08-08T08:19:03;101109.38;;;22.05;60.50
42169;BME280;27838;43.858;25.974;2023-08-08T08:21:30;101102.00;;;22.12;60.57
42169;BME280;27838;43.858;25.974;2023-08-08T08:23:56;101107.78;;;22.22;60.38
42169;BME280;27838;43.858;25.974;2023-08-08T08:26:23;101101.19;;;22.32;59.12
42169;BME280;27838;43.858;25.974;2023-08-08T08:28:49;101104.50;;;22.37;58.96
42169;BME280;27838;43.858;25.974;2023-08-08T08:31:16;101096.47;;;22.39;59.23
42169;BME280;27838;43.858;25.974;2023-08-08T08:33:42;101088.94;;;22.49;59.88
42169;BME280;27838;43.858;25.974;2023-08-08T08:36:09;101094.53;;;22.63;58.16
42169;BME280;27838;43.858;25.974;2023-08-08T08:38:36;101085.13;;;22.75;58.57
42169;BME280;27838;43.858;25.974;2023-08-08T08:41:02;101078.69;;;22.99;58.32
42169;BME280;27838;43.858;25.974;2023-08-08T08:43:30;101085.91;;;23.16;58.10
42169;BME280;27838;43.858;25.974;2023-08-08T08:46:00;101083.38;;;23.32;57.37
42169;BME280;27838;43.858;25.974;2023-08-08T08:48:26;101084.59;;;23.44;55.63
42169;BME280;27838;43.858;25.974;2023-08-08T08:50:53;101084.31;;;23.50;55.73
42169;BME280;27838;43.858;25.974;2023-08-08T08:53:20;101085.88;;;23.54;55.27
42169;BME280;27838;43.858;25.974;2023-08-08T08:55:48;101090.91;;;23.61;55.27
42169;BME280;27838;43.858;25.974;2023-08-08T08:58:15;101086.44;;;23.61;54.82
42169;BME280;27838;43.858;25.974;2023-08-08T09:00:44;101093.91;;;23.72;54.51
42169;BME280;27838;43.858;25.974;2023-08-08T09:03:12;101093.19;;;23.87;53.85
42169;BME280;27838;43.858;25.974;2023-08-08T09:05:39;101099.53;;;24.02;53.44
42169;BME280;27838;43.858;25.974;2023-08-08T09:08:08;101084.19;;;24.07;53.64
42169;BME280;27838;43.858;25.974;2023-08-08T09:10:34;101093.13;;;24.06;53.37
42169;BME280;27838;43.858;25.974;2023-08-08T09:13:01;101095.47;;;24.12;52.62
42169;BME280;27838;43.858;25.974;2023-08-08T09:15:32;101083.88;;;24.31;52.25
42169;BME280;27838;43.858;25.974;2023-08-08T09:17:58;101077.81;;;24.45;52.85
42169;BME280;27838;43.858;25.974;2023-08-08T09:20:26;101069.13;;;24.59;51.31
42169;BME280;27838;43.858;25.974;2023-08-08T09:22:54;101072.59;;;24.77;50.95
42169;BME280;27838;43.858;25.974;2023-08-08T09:25:20;101084.72;;;24.82;50.87
42169;BME280;27838;43.858;25.974;2023-08-08T09:27:47;101077.88;;;24.94;50.06
42169;BME280;27838;43.858;25.974;2023-08-08T09:30:15;101072.13;;;25.02;48.92
42169;BME280;27838;43.858;25.974;2023-08-08T09:32:43;101057.16;;;25.15;48.80
42169;BME280;27838;43.858;25.974;2023-08-08T09:35:10;101064.44;;;25.29;48.30
42169;BME280;27838;43.858;25.974;2023-08-08T09:37:37;101068.28;;;25.39;46.98
42169;BME280;27838;43.858;25.974;2023-08-08T09:40:05;101065.47;;;25.42;47.16
42169;BME280;27838;43.858;25.974;2023-08-08T09:42:33;101065.09;;;25.49;47.36
42169;BME280;27838;43.858;25.974;2023-08-08T09:45:00;101071.13;;;25.52;47.23
42169;BME280;27838;43.858;25.974;2023-08-08T09:47:27;101071.63;;;25.59;46.65
42169;BME280;27838;43.858;25.974;2023-08-08T09:50:00;101059.72;;;25.65;46.12
42169;BME280;27838;43.858;25.974;2023-08-08T09:52:30;101064.81;;;25.69;46.45
42169;BME280;27838;43.858;25.974;2023-08-08T09:54:57;101068.66;;;25.79;44.36
42169;BME280;27838;43.858;25.974;2023-08-08T09:57:25;101067.44;;;25.85;44.98
42169;BME280;27838;43.858;25.974;2023-08-08T09:59:52;101064.94;;;25.98;43.57
42169;BME280;27838;43.858;25.974;2023-08-08T10:02:19;101073.69;;;26.00;42.38
42169;BME280;27838;43.858;25.974;2023-08-08T10:04:46;101081.28;;;26.08;41.86
42169;BME280;27838;43.858;25.974;2023-08-08T10:07:13;101077.53;;;26.10;41.64
42169;BME280;27838;43.858;25.974;2023-08-08T10:09:40;101069.53;;;26.10;41.78
42169;BME280;27838;43.858;25.974;2023-08-08T10:12:08;101063.44;;;26.08;42.47
42169;BME280;27838;43.858;25.974;2023-08-08T10:14:36;101069.28;;;26.15;41.62
42169;BME280;27838;43.858;25.974;2023-08-08T10:17:04;101055.81;;;26.16;41.65
42169;BME280;27838;43.858;25.974;2023-08-08T10:19:32;101058.41;;;26.18;41.65
42169;BME280;27838;43.858;25.974;2023-08-08T10:22:03;101045.53;;;26.25;41.63
42169;BME280;27838;43.858;25.974;2023-08-08T10:24:33;101064.63;;;26.47;41.33
42169;BME280;27838;43.858;25.974;2023-08-08T10:27:01;101049.88;;;26.70;41.32
42169;BME280;27838;43.858;25.974;2023-08-08T10:29:31;101052.84;;;26.94;40.95
42169;BME280;27838;43.858;25.974;2023-08-08T10:34:40;101054.19;;;27.29;39.96
42169;BME280;27838;43.858;25.974;2023-08-08T10:37:11;101047.16;;;27.28;39.26
42169;BME280;27838;43.858;25.974;2023-08-08T10:39:54;101047.81;;;27.31;38.90
42169;BME280;27838;43.858;25.974;2023-08-08T10:42:24;101038.22;;;27.42;38.13
42169;BME280;27838;43.858;25.974;2023-08-08T10:44:52;101043.69;;;27.53;38.20
42169;BME280;27838;43.858;25.974;2023-08-08T10:47:31;101041.38;;;27.61;37.37
42169;BME280;27838;43.858;25.974;2023-08-08T10:50:10;101032.28;;;27.64;37.68
42169;BME280;27838;43.858;25.974;2023-08-08T10:55:23;101040.91;;;27.82;36.88
42169;BME280;27838;43.858;25.974;2023-08-08T10:58:12;101032.28;;;27.91;35.81
42169;BME280;27838;43.858;25.974;2023-08-08T11:00:40;101032.38;;;28.02;35.11
42169;BME280;27838;43.858;25.974;2023-08-08T11:03:08;101035.09;;;28.15;34.99
42169;BME280;27838;43.858;25.974;2023-08-08T11:05:37;101022.63;;;28.27;34.62
42169;BME280;27838;43.858;25.974;2023-08-08T11:08:05;101032.19;;;28.44;34.62
42169;BME280;27838;43.858;25.974;2023-08-08T11:10:37;101033.56;;;28.50;34.62
42169;BME280;27838;43.858;25.974;2023-08-08T11:13:05;101038.28;;;28.46;34.19
42169;BME280;27838;43.858;25.974;2023-08-08T11:15:33;101032.06;;;28.46;34.47
42169;BME280;27838;43.858;25.974;2023-08-08T11:18:01;101031.88;;;28.49;33.24
42169;BME280;27838;43.858;25.974;2023-08-08T11:20:32;101039.59;;;28.40;32.30
42169;BME280;27838;43.858;25.974;2023-08-08T11:23:00;101031.34;;;28.43;32.27
42169;BME280;27838;43.858;25.974;2023-08-08T11:25:28;101042.59;;;28.49;32.17
42169;BME280;27838;43.858;25.974;2023-08-08T11:27:56;101033.06;;;28.57;31.38
42169;BME280;27838;43.858;25.974;2023-08-08T11:30:27;101041.13;;;28.57;31.33
42169;BME280;27838;43.858;25.974;2023-08-08T11:32:54;101031.66;;;28.39;31.59
42169;BME280;27838;43.858;25.974;2023-08-08T11:35:24;101038.94;;;28.37;30.45
42169;BME280;27838;43.858;25.974;2023-08-08T11:37:53;101032.28;;;28.42;30.32
42169;BME280;27838;43.858;25.974;2023-08-08T11:40:22;101028.84;;;28.40;30.27
42169;BME280;27838;43.858;25.974;2023-08-08T11:42:50;101026.06;;;28.42;30.48
42169;BME280;27838;43.858;25.974;2023-08-08T11:45:18;101022.44;;;28.56;30.51
42169;BME280;27838;43.858;25.974;2023-08-08T11:47:51;101025.94;;;28.69;31.18
42169;BME280;27838;43.858;25.974;2023-08-08T11:50:20;101015.53;;;28.77;31.21
42169;BME280;27838;43.858;25.974;2023-08-08T11:52:48;101008.91;;;28.70;30.58
42169;BME280;27838;43.858;25.974;2023-08-08T11:55:16;101009.22;;;28.78;31.46
42169;BME280;27838;43.858;25.974;2023-08-08T11:57:46;101006.69;;;28.88;31.85
42169;BME280;27838;43.858;25.974;2023-08-08T12:00:13;101006.16;;;28.96;30.33
42169;BME280;27838;43.858;25.974;2023-08-08T12:02:41;101010.94;;;29.04;31.22
42169;BME280;27838;43.858;25.974;2023-08-08T12:05:10;101007.19;;;29.06;31.48
42169;BME280;27838;43.858;25.974;2023-08-08T12:07:38;101009.41;;;29.12;31.01
42169;BME280;27838;43.858;25.974;2023-08-08T12:10:14;101001.06;;;29.17;31.13
42169;BME280;27838;43.858;25.974;2023-08-08T12:12:41;100993.13;;;29.15;30.62
42169;BME280;27838;43.858;25.974;2023-08-08T12:15:08;100990.13;;;29.20;31.28
42169;BME280;27838;43.858;25.974;2023-08-08T12:17:39;100987.66;;;29.04;30.61
42169;BME280;27838;43.858;25.974;2023-08-08T12:20:07;100991.00;;;29.08;30.54
42169;BME280;27838;43.858;25.974;2023-08-08T12:22:35;100992.47;;;29.12;31.56
42169;BME280;27838;43.858;25.974;2023-08-08T12:25:02;100990.84;;;29.09;31.23
42169;BME280;27838;43.858;25.974;2023-08-08T12:27:29;100985.44;;;28.98;30.91
42169;BME280;27838;43.858;25.974;2023-08-08T12:29:56;100988.81;;;28.89;31.42
42169;BME280;27838;43.858;25.974;2023-08-08T12:32:26;100983.88;;;28.83;31.56
42169;BME280;27838;43.858;25.974;2023-08-08T12:34:54;100986.13;;;28.89;31.68
42169;BME280;27838;43.858;25.974;2023-08-08T12:37:22;100998.84;;;28.98;31.75
42169;BME280;27838;43.858;25.974;2023-08-08T12:39:50;101003.00;;;29.02;31.42
42169;BME280;27838;43.858;25.974;2023-08-08T12:42:17;101002.28;;;29.00;31.83
42169;BME280;27838;43.858;25.974;2023-08-08T12:44:44;101002.44;;;28.86;36.18
42169;BME280;27838;43.858;25.974;2023-08-08T12:47:12;101000.78;;;28.59;37.97
42169;BME280;27838;43.858;25.974;2023-08-08T12:49:38;101002.13;;;28.52;38.29